createdAt,value
2022-11-13T00:00:33.475Z,11.40
2022-11-13T00:03:33.925Z,11.70
2022-11-13T00:06:40.538Z,11.70
2022-11-13T00:09:39.801Z,11.80
2022-11-13T00:12:46.479Z,11.80
2022-11-13T00:15:57.200Z,11.70
2022-11-13T00:19:03.536Z,11.50
2022-11-13T00:22:03.808Z,11.50
2022-11-13T00:25:11.459Z,11.70
2022-11-13T00:28:11.927Z,11.60
2022-11-13T00:31:21.434Z,11.70
2022-11-13T00:34:45.731Z,11.70
2022-11-13T00:37:40.420Z,11.60
2022-11-13T00:40:47.450Z,11.60
2022-11-13T00:43:47.862Z,11.70
2022-11-13T00:46:55.544Z,11.80
2022-11-13T00:49:55.841Z,11.70
2022-11-13T00:53:02.460Z,11.60
2022-11-13T00:56:03.033Z,11.60
2022-11-13T00:59:09.471Z,11.60
2022-11-13T01:02:12.944Z,11.30
2022-11-13T01:05:19.568Z,11.30
2022-11-13T01:08:19.787Z,11.30
2022-11-13T01:11:27.466Z,11.10
2022-11-13T01:14:34.481Z,11.00
2022-11-13T01:17:35.717Z,11.00
2022-11-13T01:20:42.554Z,10.60
2022-11-13T01:23:42.609Z,10.30
2022-11-13T01:26:49.476Z,10.00
2022-11-13T01:29:49.655Z,10.00
2022-11-13T01:32:58.470Z,10.40
2022-11-13T01:35:58.709Z,11.00
2022-11-13T01:39:05.478Z,11.30
2022-11-13T01:42:05.681Z,11.20
2022-11-13T01:45:27.573Z,11.30
2022-11-13T01:48:36.482Z,11.50
2022-11-13T01:51:39.738Z,11.60
2022-11-13T01:54:47.626Z,11.40
2022-11-13T01:57:50.059Z,11.30
2022-11-13T02:00:56.466Z,11.30
2022-11-13T02:03:58.352Z,11.40
2022-11-13T02:07:06.613Z,11.50
2022-11-13T02:10:07.345Z,11.40
2022-11-13T02:13:14.466Z,10.60
2022-11-13T02:16:14.952Z,10.70
2022-11-13T02:19:26.461Z,10.90
2022-11-13T02:22:30.216Z,11.30
2022-11-13T02:25:39.492Z,11.50
2022-11-13T02:28:40.116Z,11.50
2022-11-13T02:31:46.477Z,11.10
2022-11-13T02:34:46.950Z,11.00
2022-11-13T02:37:53.555Z,11.20
2022-11-13T02:40:55.226Z,11.20
2022-11-13T02:44:01.510Z,11.10
2022-11-13T02:47:01.878Z,11.10
2022-11-13T02:50:01.494Z,11.20
2022-11-13T02:53:08.482Z,11.10
2022-11-13T02:56:10.383Z,10.90
2022-11-13T02:59:17.491Z,11.00
2022-11-13T03:02:16.835Z,10.80
2022-11-13T03:05:23.478Z,10.70
2022-11-13T03:08:25.994Z,10.30
2022-11-13T03:11:34.549Z,10.10
2022-11-13T03:14:34.966Z,10.00
2022-11-13T03:17:41.558Z,10.30
2022-11-13T03:20:43.089Z,10.30
2022-11-13T03:23:51.499Z,10.80
2022-11-13T03:26:53.281Z,11.00
2022-11-13T03:29:59.521Z,11.00
2022-11-13T03:33:06.481Z,10.70
2022-11-13T03:36:06.736Z,10.10
2022-11-13T03:39:13.502Z,9.80
2022-11-13T03:42:15.712Z,9.70
2022-11-13T03:45:24.599Z,9.90
2022-11-13T03:48:24.846Z,10.60
2022-11-13T03:51:31.492Z,10.60
2022-11-13T03:54:31.734Z,10.60
2022-11-13T03:57:39.601Z,10.30
2022-11-13T04:00:47.695Z,10.00
2022-11-13T04:03:47.570Z,9.90
2022-11-13T04:06:54.569Z,10.30
2022-11-13T04:09:54.757Z,10.30
2022-11-13T04:13:02.610Z,10.60
2022-11-13T04:16:02.775Z,11.10
2022-11-13T04:19:09.558Z,11.30
2022-11-13T04:22:09.723Z,11.30
2022-11-13T04:25:16.510Z,11.10
2022-11-13T04:28:18.685Z,11.20
2022-11-13T04:31:25.499Z,11.10
2022-11-13T04:34:26.428Z,10.80
2022-11-13T04:37:33.501Z,10.20
2022-11-13T04:40:40.526Z,10.00
2022-11-13T04:43:41.374Z,10.10
2022-11-13T04:46:48.604Z,10.70
2022-11-13T04:49:48.865Z,11.00
2022-11-13T04:52:55.538Z,11.10
2022-11-13T04:55:56.086Z,11.00
2022-11-13T04:59:03.563Z,10.90
2022-11-13T05:02:04.048Z,10.80
2022-11-13T05:05:10.587Z,10.70
2022-11-13T05:08:11.073Z,10.70
2022-11-13T05:11:17.525Z,10.60
2022-11-13T05:14:19.342Z,10.60
2022-11-13T05:17:26.585Z,10.90
2022-11-13T05:20:33.630Z,10.90
2022-11-13T05:23:33.706Z,10.70
2022-11-13T05:26:40.546Z,10.60
2022-11-13T05:29:41.730Z,10.70
2022-11-13T05:32:48.652Z,10.60
2022-11-13T05:35:48.780Z,10.30
2022-11-13T05:38:55.571Z,10.40
2022-11-13T05:41:55.789Z,10.60
2022-11-13T05:45:03.555Z,10.50
2022-11-13T05:48:04.742Z,10.20
2022-11-13T05:51:12.569Z,9.70
2022-11-13T05:54:19.572Z,9.50
2022-11-13T05:57:19.980Z,9.80
2022-11-13T06:00:28.562Z,9.90
2022-11-13T06:03:28.922Z,9.60
2022-11-13T06:06:35.571Z,9.00
2022-11-13T06:09:36.072Z,9.10
2022-11-13T06:12:43.565Z,9.50
2022-11-13T06:15:45.334Z,10.00
2022-11-13T06:18:51.662Z,9.90
2022-11-13T06:21:51.914Z,9.90
2022-11-13T06:24:58.564Z,10.00
2022-11-13T06:27:59.037Z,10.10
2022-11-13T06:31:06.707Z,10.10
2022-11-13T06:34:13.566Z,10.00
2022-11-13T06:37:13.781Z,9.70
2022-11-13T06:40:21.562Z,9.50
2022-11-13T06:43:21.769Z,9.50
2022-11-13T06:46:30.560Z,9.80
2022-11-13T06:49:30.770Z,9.80
2022-11-13T06:52:37.665Z,9.80
2022-11-13T06:55:37.719Z,9.60
2022-11-13T06:58:44.658Z,9.70
2022-11-13T07:01:45.776Z,9.80
2022-11-13T07:04:52.581Z,9.70
2022-11-13T07:07:59.567Z,9.80
2022-11-13T07:11:00.159Z,9.90
2022-11-13T07:14:06.577Z,10.00
2022-11-13T07:17:10.103Z,10.10
2022-11-13T07:20:17.566Z,10.10
2022-11-13T07:23:17.982Z,9.90
2022-11-13T07:26:24.582Z,9.80
2022-11-13T07:29:25.181Z,9.60
2022-11-13T07:32:32.646Z,9.60
2022-11-13T07:35:33.064Z,9.50
2022-11-13T07:38:39.590Z,9.90
2022-11-13T07:41:39.995Z,9.90
2022-11-13T07:44:55.307Z,9.90
2022-11-13T07:48:06.634Z,9.90
2022-11-13T07:51:07.841Z,10.00
2022-11-13T07:54:14.668Z,9.80
2022-11-13T07:57:14.803Z,9.30
2022-11-13T08:00:22.571Z,8.90
2022-11-13T08:03:24.737Z,9.40
2022-11-13T08:06:34.660Z,9.90
2022-11-13T08:09:34.748Z,10.00
2022-11-13T08:12:41.673Z,10.00
2022-11-13T08:15:41.787Z,10.10
2022-11-13T08:18:49.592Z,10.20
2022-11-13T08:21:56.606Z,10.00
2022-11-13T08:24:57.653Z,10.20
2022-11-13T08:28:12.810Z,10.30
2022-11-13T08:31:13.931Z,10.00
2022-11-13T08:34:21.608Z,9.50
2022-11-13T08:37:22.020Z,9.70
2022-11-13T08:40:28.650Z,10.10
2022-11-13T08:43:28.960Z,10.20
2022-11-13T08:46:35.691Z,10.20
2022-11-13T08:49:37.338Z,10.30
2022-11-13T08:52:43.695Z,10.40
2022-11-13T08:55:50.606Z,10.40
2022-11-13T08:58:50.860Z,10.50
2022-11-13T09:01:57.638Z,10.60
2022-11-13T09:04:58.748Z,10.80
2022-11-13T09:08:06.639Z,10.80
2022-11-13T09:11:09.815Z,10.70
2022-11-13T09:14:16.661Z,10.30
2022-11-13T09:17:16.803Z,10.10
2022-11-13T09:20:25.610Z,9.90
2022-11-13T09:23:25.821Z,10.00
2022-11-13T09:26:32.682Z,10.20
2022-11-13T09:29:32.878Z,10.40
2022-11-13T09:32:39.686Z,10.50
2022-11-13T09:35:47.698Z,10.70
2022-11-13T09:38:51.069Z,10.90
2022-11-13T09:42:00.604Z,11.20
2022-11-13T09:45:02.280Z,11.60
2022-11-13T09:48:09.693Z,11.50
2022-11-13T09:51:14.262Z,11.50
2022-11-13T09:54:20.640Z,11.30
2022-11-13T09:57:36.825Z,11.30
2022-11-13T10:00:43.717Z,11.30
2022-11-13T10:04:01.466Z,11.30
2022-11-13T10:07:15.734Z,11.50
2022-11-13T10:10:35.610Z,11.60
2022-11-13T10:13:36.873Z,11.70
2022-11-13T10:16:45.744Z,11.80
2022-11-13T10:19:47.804Z,11.90
2022-11-13T10:22:57.668Z,12.10
2022-11-13T10:25:58.435Z,12.20
2022-11-13T10:29:07.740Z,12.30
2022-11-13T10:32:07.873Z,12.50
2022-11-13T10:35:24.670Z,13.10
2022-11-13T10:38:27.891Z,13.50
2022-11-13T10:41:34.710Z,13.60
2022-11-13T10:44:40.797Z,13.80
2022-11-13T10:48:04.250Z,13.70
2022-11-13T10:51:05.984Z,13.40
2022-11-13T10:54:27.659Z,13.20
2022-11-13T10:57:45.839Z,13.10
2022-11-13T11:00:54.007Z,13.10
2022-11-13T11:03:56.712Z,13.30
2022-11-13T11:07:19.045Z,13.60
2022-11-13T11:10:35.665Z,14.10
2022-11-13T11:13:36.017Z,14.00
2022-11-13T11:16:42.650Z,14.00
2022-11-13T11:19:45.164Z,14.60
2022-11-13T11:22:52.634Z,14.80
2022-11-13T11:25:55.872Z,15.10
2022-11-13T11:29:03.710Z,15.10
2022-11-13T11:32:10.148Z,14.80
2022-11-13T11:35:21.660Z,15.00
2022-11-13T11:38:32.707Z,15.00
2022-11-13T11:41:38.894Z,14.90
2022-11-13T11:44:48.682Z,15.20
2022-11-13T11:47:48.947Z,15.00
2022-11-13T11:50:58.683Z,15.10
2022-11-13T11:54:03.897Z,15.30
2022-11-13T11:57:14.674Z,15.10
2022-11-13T12:00:22.844Z,15.20
2022-11-13T12:03:39.734Z,15.20
2022-11-13T12:06:46.146Z,15.30
2022-11-13T12:09:54.752Z,15.20
2022-11-13T12:13:13.175Z,15.30
2022-11-13T12:16:25.536Z,15.60
2022-11-13T12:19:29.533Z,16.30
2022-11-13T12:22:42.675Z,16.40
2022-11-13T12:25:45.911Z,16.30
2022-11-13T12:28:57.711Z,16.20
2022-11-13T12:32:02.734Z,16.10
2022-11-13T12:35:11.704Z,16.20
2022-11-13T12:38:14.827Z,16.10
2022-11-13T12:41:27.788Z,15.90
2022-11-13T12:44:36.772Z,16.10
2022-11-13T12:47:36.848Z,16.40
2022-11-13T12:50:43.696Z,16.40
2022-11-13T12:53:55.030Z,16.40
2022-11-13T12:57:11.679Z,16.60
2022-11-13T13:00:36.715Z,16.60
2022-11-13T13:03:51.691Z,16.50
2022-11-13T13:07:09.002Z,16.60
2022-11-13T13:10:21.738Z,16.70
2022-11-13T13:13:24.913Z,16.70
2022-11-13T13:16:33.693Z,16.50
2022-11-13T13:19:34.965Z,16.20
2022-11-13T13:22:42.729Z,16.40
2022-11-13T13:25:42.903Z,16.60
2022-11-13T13:28:50.809Z,16.80
2022-11-13T13:31:56.914Z,16.80
2022-11-13T13:35:08.705Z,16.80
2022-11-13T13:38:18.697Z,16.70
2022-11-13T13:41:23.497Z,16.40
2022-11-13T13:44:44.778Z,16.20
2022-11-13T13:47:47.792Z,16.10
2022-11-13T13:50:56.775Z,16.60
2022-11-13T13:53:57.902Z,16.50
2022-11-13T13:57:04.736Z,16.50
2022-11-13T14:00:18.772Z,16.30
2022-11-13T14:03:27.710Z,16.30
2022-11-13T14:06:28.979Z,16.30
2022-11-13T14:09:36.719Z,16.50
2022-11-13T14:12:36.924Z,16.80
2022-11-13T14:15:43.731Z,16.60
2022-11-13T14:18:44.920Z,16.70
2022-11-13T14:21:51.828Z,17.00
2022-11-13T14:25:02.775Z,16.80
2022-11-13T14:28:03.414Z,16.40
2022-11-13T14:31:10.700Z,16.10
2022-11-13T14:34:15.436Z,16.00
2022-11-13T14:37:30.760Z,15.90
2022-11-13T14:40:33.916Z,15.80
2022-11-13T14:43:41.727Z,15.80
2022-11-13T14:46:45.173Z,15.80
2022-11-13T14:49:52.801Z,15.80
2022-11-13T14:52:57.005Z,15.70
2022-11-13T14:56:05.826Z,15.60
2022-11-13T14:59:13.386Z,15.60
2022-11-13T15:02:24.814Z,15.50
2022-11-13T15:05:26.846Z,15.50
2022-11-13T15:08:33.715Z,15.40
2022-11-13T15:11:35.283Z,15.40
2022-11-13T15:14:41.750Z,15.30
2022-11-13T15:17:49.757Z,15.20
2022-11-13T15:20:51.968Z,15.20
2022-11-13T15:23:58.766Z,15.10
2022-11-13T15:26:58.988Z,15.00
2022-11-13T15:30:05.824Z,14.80
2022-11-13T15:33:06.018Z,14.70
2022-11-13T15:36:15.770Z,14.60
2022-11-13T15:39:23.334Z,14.50
2022-11-13T15:42:34.926Z,14.40
2022-11-13T15:45:42.805Z,14.30
2022-11-13T15:48:50.862Z,14.30
2022-11-13T15:51:59.765Z,14.30
2022-11-13T15:55:00.301Z,14.20
2022-11-13T15:58:06.911Z,14.10
2022-11-13T16:01:14.047Z,14.10
2022-11-13T16:04:13.770Z,13.90
2022-11-13T16:07:17.894Z,13.70
2022-11-13T16:10:24.938Z,13.60
2022-11-13T16:13:25.334Z,13.40
2022-11-13T16:16:33.778Z,13.30
2022-11-13T16:19:34.357Z,13.30
2022-11-13T16:22:41.830Z,13.20
2022-11-13T16:25:42.401Z,13.20
2022-11-13T16:29:07.690Z,13.00
2022-11-13T16:32:18.836Z,12.80
2022-11-13T16:35:22.057Z,12.80
2022-11-13T16:38:31.068Z,12.70
2022-11-13T16:41:30.961Z,12.60
2022-11-13T16:44:37.824Z,12.60
2022-11-13T16:47:37.990Z,12.50
2022-11-13T16:50:45.777Z,12.50
2022-11-13T16:53:46.964Z,12.70
2022-11-13T16:56:53.785Z,12.80
2022-11-13T16:59:54.009Z,12.70
2022-11-13T17:03:00.884Z,12.50
2022-11-13T17:06:07.779Z,12.40
2022-11-13T17:09:10.689Z,12.30
2022-11-13T17:12:21.902Z,12.10
2022-11-13T17:15:23.209Z,12.00
2022-11-13T17:18:29.801Z,12.00
2022-11-13T17:21:30.610Z,11.90
2022-11-13T17:24:37.784Z,11.90
2022-11-13T17:27:38.199Z,12.00
2022-11-13T17:30:44.787Z,12.40
2022-11-13T17:33:45.250Z,12.50
2022-11-13T17:36:51.791Z,12.40
2022-11-13T17:39:53.704Z,12.40
2022-11-13T17:43:00.804Z,12.10
2022-11-13T17:46:07.863Z,11.80
2022-11-13T17:49:07.999Z,11.80
2022-11-13T17:52:14.897Z,12.10
2022-11-13T17:55:17.386Z,12.20
2022-11-13T17:58:23.805Z,11.90
2022-11-13T18:01:25.116Z,11.60
2022-11-13T18:04:31.774Z,11.40
2022-11-13T18:07:32.051Z,11.50
2022-11-13T18:10:39.854Z,11.40
2022-11-13T18:13:40.042Z,11.80
2022-11-13T18:16:46.911Z,12.20
2022-11-13T18:19:58.580Z,12.40
2022-11-13T18:23:01.513Z,12.40
2022-11-13T18:26:08.785Z,12.20
2022-11-13T18:29:09.564Z,11.80
2022-11-13T18:32:15.826Z,11.60
2022-11-13T18:35:16.464Z,11.70
2022-11-13T18:38:22.956Z,11.80
2022-11-13T18:41:24.645Z,11.50
2022-11-13T18:44:30.865Z,11.90
2022-11-13T18:47:31.642Z,12.20
2022-11-13T18:50:37.928Z,12.40
2022-11-13T18:53:38.648Z,12.40
2022-11-13T18:56:46.980Z,11.90
2022-11-13T19:00:08.870Z,11.20
2022-11-13T19:03:16.137Z,11.30
2022-11-13T19:06:16.850Z,11.40
2022-11-13T19:09:17.639Z,11.40
2022-11-13T19:12:25.838Z,11.60
2022-11-13T19:15:25.217Z,11.80
2022-11-13T19:18:31.940Z,11.80
2022-11-13T19:21:33.358Z,11.30
2022-11-13T19:24:39.813Z,11.30
2022-11-13T19:27:47.840Z,11.30
2022-11-13T19:30:54.645Z,11.40
2022-11-13T19:34:03.900Z,11.50
2022-11-13T19:37:04.093Z,11.50
2022-11-13T19:40:11.865Z,11.40
2022-11-13T19:43:13.982Z,11.20
2022-11-13T19:46:21.847Z,11.20
2022-11-13T19:49:22.247Z,11.20
2022-11-13T19:52:27.874Z,11.10
2022-11-13T19:55:28.092Z,11.20
2022-11-13T19:58:36.854Z,11.20
2022-11-13T20:01:37.280Z,11.00
2022-11-13T20:04:43.945Z,10.50
2022-11-13T20:07:50.851Z,10.20
2022-11-13T20:10:51.376Z,10.00
2022-11-13T20:13:59.824Z,10.40
2022-11-13T20:17:00.238Z,10.90
2022-11-13T20:20:06.843Z,11.00
2022-11-13T20:23:07.457Z,10.90
2022-11-13T20:26:14.918Z,10.90
2022-11-13T20:29:16.656Z,10.80
2022-11-13T20:32:22.878Z,11.10
2022-11-13T20:35:22.272Z,11.00
2022-11-13T20:38:29.220Z,10.90
2022-11-13T20:41:35.846Z,11.10
2022-11-13T20:44:38.045Z,11.20
2022-11-13T20:47:44.944Z,10.90
2022-11-13T20:50:45.132Z,10.60
2022-11-13T20:53:51.872Z,10.60
2022-11-13T20:56:53.090Z,10.10
2022-11-13T20:59:59.921Z,9.80
2022-11-13T21:03:07.113Z,9.60
2022-11-13T21:06:06.926Z,9.60
2022-11-13T21:09:07.492Z,9.70
2022-11-13T21:12:13.965Z,9.90
2022-11-13T21:15:15.692Z,10.20
2022-11-13T21:18:14.884Z,10.10
2022-11-13T21:21:22.883Z,10.30
2022-11-13T21:24:23.318Z,10.50
2022-11-13T21:27:29.905Z,10.20
2022-11-13T21:30:31.664Z,9.90
2022-11-13T21:33:37.913Z,9.70
2022-11-13T21:36:38.292Z,9.70
2022-11-13T21:39:45.006Z,9.70
2022-11-13T21:42:45.874Z,9.50
2022-11-13T21:45:53.891Z,9.50
2022-11-13T21:48:56.645Z,10.00
2022-11-13T21:52:02.862Z,10.70
2022-11-13T21:55:09.976Z,10.80
2022-11-13T21:58:10.123Z,10.60
2022-11-13T22:01:18.910Z,10.20
2022-11-13T22:04:21.680Z,9.60
2022-11-13T22:07:27.897Z,9.70
2022-11-13T22:10:28.060Z,9.50
2022-11-13T22:13:34.898Z,9.60
2022-11-13T22:16:38.175Z,10.10
2022-11-13T22:19:45.968Z,10.50
2022-11-13T22:22:46.017Z,10.60
2022-11-13T22:25:57.958Z,10.60
2022-11-13T22:28:59.042Z,10.60
2022-11-13T22:32:00.958Z,10.40
2022-11-13T22:35:07.892Z,9.70
2022-11-13T22:38:09.008Z,9.20
2022-11-13T22:41:22.635Z,9.00
2022-11-13T22:44:24.350Z,9.50
2022-11-13T22:47:37.985Z,10.00
2022-11-13T22:50:38.024Z,10.20
2022-11-13T22:53:44.913Z,10.40
2022-11-13T22:56:46.109Z,10.40
2022-11-13T22:59:52.928Z,10.40
2022-11-13T23:02:55.145Z,10.20
2022-11-13T23:05:54.870Z,10.30
2022-11-13T23:09:01.900Z,10.30
2022-11-13T23:12:02.089Z,10.40
2022-11-13T23:15:08.907Z,10.40
2022-11-13T23:18:11.106Z,10.20
2022-11-13T23:21:18.094Z,9.70
2022-11-13T23:24:18.116Z,9.40
2022-11-13T23:27:25.008Z,9.40
2022-11-13T23:30:25.181Z,9.20
2022-11-13T23:33:32.962Z,9.50
2022-11-13T23:36:33.061Z,9.70
2022-11-13T23:39:39.932Z,9.90
2022-11-13T23:42:54.611Z,10.00
2022-11-13T23:45:55.102Z,9.80
2022-11-13T23:49:02.990Z,9.80
2022-11-13T23:52:03.063Z,9.60
2022-11-13T23:55:09.894Z,9.40
2022-11-13T23:58:11.137Z,9.40
